sensor_id;sensor_type;location;lat;lon;timestamp;pressure;altitude;pressure_sealevel;temperature;humidity
57894;BME280;43710;47.460;19.034;2023-04-03T03:59:44;100493.19;;;8.35;57.62
57894;BME280;43710;47.460;19.034;2023-04-03T04:02:46;100493.19;;;8.35;57.62
57894;BME280;43710;47.460;19.034;2023-04-03T04:05:50;100494.87;;;7.93;57.13
57894;BME280;43710;47.460;19.034;2023-04-03T04:08:52;100491.75;;;7.64;56.52
57894;BME280;43710;47.460;19.034;2023-04-03T04:11:55;100491.19;;;7.57;57.85
57894;BME280;43710;47.460;19.034;2023-04-03T04:14:58;100494.03;;;7.88;58.91
57894;BME280;43710;47.460;19.034;2023-04-03T04:18:02;100498.41;;;8.09;57.30
57894;BME280;43710;47.460;19.034;2023-04-03T04:21:06;100498.37;;;7.99;56.08
57894;BME280;43710;47.460;19.034;2023-04-03T04:24:08;100495.03;;;8.34;71.59
57894;BME280;43710;47.460;19.034;2023-04-03T04:27:12;100495.84;;;8.35;57.49
57894;BME280;43710;47.460;19.034;2023-04-03T04:30:15;100499.22;;;8.10;56.38
57894;BME280;43710;47.460;19.034;2023-04-03T04:33:17;100499.06;;;7.79;56.85
57894;BME280;43710;47.460;19.034;2023-04-03T04:36:20;100506.69;;;8.08;58.58
57894;BME280;43710;47.460;19.034;2023-04-03T04:39:23;100504.47;;;7.94;56.58
57894;BME280;43710;47.460;19.034;2023-04-03T04:42:26;100507.66;;;7.86;57.95
57894;BME280;43710;47.460;19.034;2023-04-03T04:45:28;100504.59;;;7.67;56.73
57894;BME280;43710;47.460;19.034;2023-04-03T04:48:31;100507.50;;;7.61;57.14
57894;BME280;43710;47.460;19.034;2023-04-03T04:51:34;100510.97;;;7.61;60.38
57894;BME280;43710;47.460;19.034;2023-04-03T04:54:52;100514.34;;;7.46;58.03
57894;BME280;43710;47.460;19.034;2023-04-03T04:57:55;100516.97;;;7.84;74.14
57894;BME280;43710;47.460;19.034;2023-04-03T05:01:03;100519.06;;;7.76;59.00
57894;BME280;43710;47.460;19.034;2023-04-03T05:04:06;100513.12;;;7.64;60.25
57894;BME280;43710;47.460;19.034;2023-04-03T05:07:09;100522.41;;;7.57;59.89
57894;BME280;43710;47.460;19.034;2023-04-03T05:10:11;100519.03;;;7.71;62.95
57894;BME280;43710;47.460;19.034;2023-04-03T05:13:16;100518.63;;;7.90;72.87
57894;BME280;43710;47.460;19.034;2023-04-03T05:16:20;100521.09;;;8.07;72.68
57894;BME280;43710;47.460;19.034;2023-04-03T05:19:23;100524.78;;;7.95;71.24
57894;BME280;43710;47.460;19.034;2023-04-03T05:22:25;100528.13;;;8.18;63.45
57894;BME280;43710;47.460;19.034;2023-04-03T05:25:29;100521.19;;;8.22;58.99
57894;BME280;43710;47.460;19.034;2023-04-03T05:28:32;100516.94;;;8.31;58.80
57894;BME280;43710;47.460;19.034;2023-04-03T05:31:35;100523.62;;;8.34;60.57
57894;BME280;43710;47.460;19.034;2023-04-03T05:34:38;100514.13;;;8.00;58.12
57894;BME280;43710;47.460;19.034;2023-04-03T05:37:40;100523.75;;;8.02;64.22
57894;BME280;43710;47.460;19.034;2023-04-03T05:40:43;100511.19;;;8.65;78.70
57894;BME280;43710;47.460;19.034;2023-04-03T05:43:45;100524.16;;;8.36;59.85
57894;BME280;43710;47.460;19.034;2023-04-03T05:46:48;100532.97;;;8.36;86.85
57894;BME280;43710;47.460;19.034;2023-04-03T05:49:50;100541.72;;;8.84;63.15
57894;BME280;43710;47.460;19.034;2023-04-03T05:52:55;100535.22;;;8.55;57.13
57894;BME280;43710;47.460;19.034;2023-04-03T05:56:00;100547.56;;;8.76;67.35
57894;BME280;43710;47.460;19.034;2023-04-03T05:59:05;100551.22;;;8.44;58.37
57894;BME280;43710;47.460;19.034;2023-04-03T06:02:16;100550.97;;;8.04;57.41
57894;BME280;43710;47.460;19.034;2023-04-03T06:05:20;100558.69;;;7.95;56.51
57894;BME280;43710;47.460;19.034;2023-04-03T06:08:22;100550.50;;;8.12;81.07
57894;BME280;43710;47.460;19.034;2023-04-03T06:11:26;100558.53;;;8.17;56.33
57894;BME280;43710;47.460;19.034;2023-04-03T06:14:29;100556.47;;;8.34;63.75
57894;BME280;43710;47.460;19.034;2023-04-03T06:17:32;100557.78;;;8.27;57.11
57894;BME280;43710;47.460;19.034;2023-04-03T06:20:34;100563.41;;;8.30;57.86
57894;BME280;43710;47.460;19.034;2023-04-03T06:23:38;100563.22;;;8.42;58.14
57894;BME280;43710;47.460;19.034;2023-04-03T06:26:40;100574.22;;;8.56;55.73
57894;BME280;43710;47.460;19.034;2023-04-03T06:29:43;100562.94;;;8.38;56.41
57894;BME280;43710;47.460;19.034;2023-04-03T06:32:47;100565.72;;;8.11;56.17
57894;BME280;43710;47.460;19.034;2023-04-03T06:35:55;100571.69;;;8.34;64.31
57894;BME280;43710;47.460;19.034;2023-04-03T06:38:59;100561.75;;;8.24;55.42
57894;BME280;43710;47.460;19.034;2023-04-03T06:42:01;100574.81;;;8.73;65.25
57894;BME280;43710;47.460;19.034;2023-04-03T06:45:05;100563.66;;;8.91;71.18
57894;BME280;43710;47.460;19.034;2023-04-03T06:48:08;100574.88;;;9.04;57.68
57894;BME280;43710;47.460;19.034;2023-04-03T06:51:17;100574.41;;;9.43;85.90
57894;BME280;43710;47.460;19.034;2023-04-03T06:54:21;100582.94;;;9.50;56.67
57894;BME280;43710;47.460;19.034;2023-04-03T06:57:25;100584.78;;;8.98;53.91
57894;BME280;43710;47.460;19.034;2023-04-03T07:00:29;100587.41;;;8.83;54.37
57894;BME280;43710;47.460;19.034;2023-04-03T07:03:32;100584.41;;;8.59;55.14
57894;BME280;43710;47.460;19.034;2023-04-03T07:06:36;100588.50;;;8.97;72.79
57894;BME280;43710;47.460;19.034;2023-04-03T07:09:39;100592.25;;;8.81;53.98
57894;BME280;43710;47.460;19.034;2023-04-03T07:12:41;100593.25;;;8.69;56.39
57894;BME280;43710;47.460;19.034;2023-04-03T07:15:44;100592.47;;;8.74;54.70
57894;BME280;43710;47.460;19.034;2023-04-03T07:18:46;100601.56;;;8.78;54.17
57894;BME280;43710;47.460;19.034;2023-04-03T07:21:48;100599.72;;;8.89;54.03
57894;BME280;43710;47.460;19.034;2023-04-03T07:24:51;100604.06;;;9.15;60.08
57894;BME280;43710;47.460;19.034;2023-04-03T07:27:53;100604.88;;;9.11;53.39
57894;BME280;43710;47.460;19.034;2023-04-03T07:31:05;100604.62;;;9.43;56.23
57894;BME280;43710;47.460;19.034;2023-04-03T07:34:11;100606.78;;;9.56;52.81
57894;BME280;43710;47.460;19.034;2023-04-03T07:37:13;100607.06;;;9.70;71.74
57894;BME280;43710;47.460;19.034;2023-04-03T07:40:16;100597.13;;;9.91;54.93
57894;BME280;43710;47.460;19.034;2023-04-03T07:43:21;100608.06;;;10.00;57.69
57894;BME280;43710;47.460;19.034;2023-04-03T07:46:23;100621.41;;;10.46;69.12
57894;BME280;43710;47.460;19.034;2023-04-03T07:49:26;100613.94;;;10.32;50.40
57894;BME280;43710;47.460;19.034;2023-04-03T07:52:29;100614.75;;;10.18;55.65
57894;BME280;43710;47.460;19.034;2023-04-03T07:55:32;100618.75;;;10.41;69.54
57894;BME280;43710;47.460;19.034;2023-04-03T07:58:36;100620.56;;;10.55;58.79
57894;BME280;43710;47.460;19.034;2023-04-03T08:01:39;100621.84;;;10.73;67.75
57894;BME280;43710;47.460;19.034;2023-04-03T08:04:41;100616.94;;;10.91;65.08
57894;BME280;43710;47.460;19.034;2023-04-03T08:07:44;100618.31;;;10.78;54.48
57894;BME280;43710;47.460;19.034;2023-04-03T08:10:58;100630.47;;;10.60;49.85
57894;BME280;43710;47.460;19.034;2023-04-03T08:14:01;100623.59;;;10.13;48.56
57894;BME280;43710;47.460;19.034;2023-04-03T08:17:04;100629.78;;;9.83;54.43
57894;BME280;43710;47.460;19.034;2023-04-03T08:20:07;100626.84;;;9.79;55.91
57894;BME280;43710;47.460;19.034;2023-04-03T08:23:11;100632.72;;;10.02;61.20
57894;BME280;43710;47.460;19.034;2023-04-03T08:26:16;100631.69;;;9.87;54.09
57894;BME280;43710;47.460;19.034;2023-04-03T08:29:18;100626.84;;;10.05;51.45
57894;BME280;43710;47.460;19.034;2023-04-03T08:32:21;100636.44;;;10.26;50.60
57894;BME280;43710;47.460;19.034;2023-04-03T08:35:24;100634.59;;;10.27;51.73
57894;BME280;43710;47.460;19.034;2023-04-03T08:38:26;100637.22;;;10.42;52.67
57894;BME280;43710;47.460;19.034;2023-04-03T08:44:48;100633.81;;;10.91;54.33
57894;BME280;43710;47.460;19.034;2023-04-03T08:48:39;100635.62;;;10.46;58.28
57894;BME280;43710;47.460;19.034;2023-04-03T08:51:22;100637.72;;;11.19;69.76
57894;BME280;43710;47.460;19.034;2023-04-03T08:57:57;100636.44;;;11.01;51.23
57894;BME280;43710;47.460;19.034;2023-04-03T09:01:03;100630.91;;;11.32;53.35
57894;BME280;43710;47.460;19.034;2023-04-03T09:04:12;100627.78;;;11.15;66.90
57894;BME280;43710;47.460;19.034;2023-04-03T09:07:22;100638.28;;;11.50;57.29
57894;BME280;43710;47.460;19.034;2023-04-03T09:10:28;100636.81;;;11.68;60.20
57894;BME280;43710;47.460;19.034;2023-04-03T09:13:59;100630.47;;;11.59;56.43
57894;BME280;43710;47.460;19.034;2023-04-03T09:20:26;100640.56;;;11.72;49.22
57894;BME280;43710;47.460;19.034;2023-04-03T09:23:34;100640.75;;;11.47;48.18
57894;BME280;43710;47.460;19.034;2023-04-03T09:26:50;100637.13;;;11.22;42.54
57894;BME280;43710;47.460;19.034;2023-04-03T09:29:55;100643.09;;;11.14;45.05
57894;BME280;43710;47.460;19.034;2023-04-03T09:32:58;100636.09;;;11.18;50.91
57894;BME280;43710;47.460;19.034;2023-04-03T09:36:00;100643.34;;;11.57;57.83
57894;BME280;43710;47.460;19.034;2023-04-03T09:39:10;100646.03;;;11.91;73.76
57894;BME280;43710;47.460;19.034;2023-04-03T09:42:20;100648.31;;;12.08;58.91
57894;BME280;43710;47.460;19.034;2023-04-03T09:45:33;100644.22;;;12.16;61.75
57894;BME280;43710;47.460;19.034;2023-04-03T09:48:36;100636.28;;;12.01;72.12
57894;BME280;43710;47.460;19.034;2023-04-03T09:51:38;100642.34;;;11.82;44.80
57894;BME280;43710;47.460;19.034;2023-04-03T09:54:40;100634.72;;;11.60;44.55
57894;BME280;43710;47.460;19.034;2023-04-03T09:57:45;100629.50;;;11.79;46.02
57894;BME280;43710;47.460;19.034;2023-04-03T10:00:55;100624.09;;;11.45;43.20
57894;BME280;43710;47.460;19.034;2023-04-03T10:04:18;100633.72;;;11.51;43.55
57894;BME280;43710;47.460;19.034;2023-04-03T10:10:29;100628.53;;;11.99;67.19
57894;BME280;43710;47.460;19.034;2023-04-03T10:13:32;100630.84;;;11.42;45.44
57894;BME280;43710;47.460;19.034;2023-04-03T10:16:51;100642.38;;;11.77;62.84
57894;BME280;43710;47.460;19.034;2023-04-03T10:23:24;100630.03;;;12.10;53.41
57894;BME280;43710;47.460;19.034;2023-04-03T10:26:48;100627.56;;;11.85;54.61
57894;BME280;43710;47.460;19.034;2023-04-03T10:30:21;100630.78;;;11.82;47.72
57894;BME280;43710;47.460;19.034;2023-04-03T10:37:17;100634.34;;;11.38;43.29
57894;BME280;43710;47.460;19.034;2023-04-03T10:53:31;100621.38;;;11.50;48.12
57894;BME280;43710;47.460;19.034;2023-04-03T10:56:50;100628.13;;;11.47;42.66
57894;BME280;43710;47.460;19.034;2023-04-03T11:00:22;100620.34;;;11.46;57.99
57894;BME280;43710;47.460;19.034;2023-04-03T11:03:42;100613.37;;;11.45;45.89
57894;BME280;43710;47.460;19.034;2023-04-03T11:07:01;100620.47;;;11.25;42.48
57894;BME280;43710;47.460;19.034;2023-04-03T11:10:14;100618.06;;;11.24;42.17
57894;BME280;43710;47.460;19.034;2023-04-03T11:16:35;100620.03;;;11.52;52.19
57894;BME280;43710;47.460;19.034;2023-04-03T11:23:08;100609.28;;;11.82;44.03
57894;BME280;43710;47.460;19.034;2023-04-03T11:26:22;100607.53;;;12.01;44.74
57894;BME280;43710;47.460;19.034;2023-04-03T11:29:32;100595.12;;;11.76;42.37
57894;BME280;43710;47.460;19.034;2023-04-03T11:32:52;100605.19;;;11.60;41.70
57894;BME280;43710;47.460;19.034;2023-04-03T11:36:02;100594.62;;;11.40;41.07
57894;BME280;43710;47.460;19.034;2023-04-03T11:39:29;100587.59;;;11.44;53.55
57894;BME280;43710;47.460;19.034;2023-04-03T11:42:37;100576.37;;;12.00;54.46
57894;BME280;43710;47.460;19.034;2023-04-03T11:45:54;100591.47;;;12.25;56.16
57894;BME280;43710;47.460;19.034;2023-04-03T11:48:57;100590.63;;;12.25;56.51
57894;BME280;43710;47.460;19.034;2023-04-03T11:51:59;100585.63;;;12.42;56.60
57894;BME280;43710;47.460;19.034;2023-04-03T11:55:01;100589.13;;;11.89;41.84
57894;BME280;43710;47.460;19.034;2023-04-03T11:58:13;100590.50;;;11.87;40.00
57894;BME280;43710;47.460;19.034;2023-04-03T12:01:43;100588.47;;;12.03;55.82
57894;BME280;43710;47.460;19.034;2023-04-03T12:05:28;100594.19;;;12.44;53.99
57894;BME280;43710;47.460;19.034;2023-04-03T12:11:43;100575.25;;;12.30;48.62
57894;BME280;43710;47.460;19.034;2023-04-03T12:14:46;100572.69;;;12.20;43.31
57894;BME280;43710;47.460;19.034;2023-04-03T12:17:49;100579.84;;;12.06;40.17
57894;BME280;43710;47.460;19.034;2023-04-03T12:20:56;100576.66;;;11.98;54.47
57894;BME280;43710;47.460;19.034;2023-04-03T12:30:29;100570.06;;;12.39;61.49
57894;BME280;43710;47.460;19.034;2023-04-03T12:33:44;100562.63;;;12.07;42.15
57894;BME280;43710;47.460;19.034;2023-04-03T12:37:29;100565.53;;;12.10;63.20
57894;BME280;43710;47.460;19.034;2023-04-03T12:40:43;100567.13;;;11.87;42.85
57894;BME280;43710;47.460;19.034;2023-04-03T12:47:27;100567.91;;;12.12;57.25
57894;BME280;43710;47.460;19.034;2023-04-03T12:50:31;100555.69;;;12.49;49.76
57894;BME280;43710;47.460;19.034;2023-04-03T12:53:36;100566.66;;;12.28;40.44
57894;BME280;43710;47.460;19.034;2023-04-03T12:56:40;100559.25;;;12.20;50.05
57894;BME280;43710;47.460;19.034;2023-04-03T12:59:43;100560.94;;;12.35;46.21
57894;BME280;43710;47.460;19.034;2023-04-03T13:02:48;100562.81;;;12.58;63.82
57894;BME280;43710;47.460;19.034;2023-04-03T13:06:00;100549.75;;;12.52;48.51
57894;BME280;43710;47.460;19.034;2023-04-03T13:09:04;100548.06;;;12.75;55.58
57894;BME280;43710;47.460;19.034;2023-04-03T13:12:12;100538.47;;;12.68;47.77
57894;BME280;43710;47.460;19.034;2023-04-03T13:15:27;100537.00;;;12.38;39.74
57894;BME280;43710;47.460;19.034;2023-04-03T13:18:34;100538.25;;;11.98;40.24
57894;BME280;43710;47.460;19.034;2023-04-03T13:21:37;100535.81;;;12.26;57.91
57894;BME280;43710;47.460;19.034;2023-04-03T13:24:39;100527.53;;;12.41;42.00
57894;BME280;43710;47.460;19.034;2023-04-03T13:27:43;100532.37;;;11.96;40.81
57894;BME280;43710;47.460;19.034;2023-04-03T13:31:19;100526.69;;;11.68;40.95
57894;BME280;43710;47.460;19.034;2023-04-03T13:34:27;100530.06;;;11.55;41.53
57894;BME280;43710;47.460;19.034;2023-04-03T13:37:31;100530.44;;;11.72;42.91
57894;BME280;43710;47.460;19.034;2023-04-03T13:41:05;100519.53;;;11.59;40.24
57894;BME280;43710;47.460;19.034;2023-04-03T13:47:23;100526.47;;;11.94;42.03
57894;BME280;43710;47.460;19.034;2023-04-03T13:50:27;100529.72;;;12.15;45.85
57894;BME280;43710;47.460;19.034;2023-04-03T13:53:33;100526.31;;;12.09;42.60
57894;BME280;43710;47.460;19.034;2023-04-03T13:56:39;100520.16;;;12.09;38.98
57894;BME280;43710;47.460;19.034;2023-04-03T13:59:44;100514.19;;;12.12;42.70
57894;BME280;43710;47.460;19.034;2023-04-03T14:02:47;100510.47;;;12.32;48.95
57894;BME280;43710;47.460;19.034;2023-04-03T14:05:50;100510.19;;;12.52;52.37
57894;BME280;43710;47.460;19.034;2023-04-03T14:08:53;100506.81;;;12.41;43.00
57894;BME280;43710;47.460;19.034;2023-04-03T14:12:00;100508.06;;;12.06;38.50
57894;BME280;43710;47.460;19.034;2023-04-03T14:15:23;100507.66;;;11.94;39.25
57894;BME280;43710;47.460;19.034;2023-04-03T14:18:28;100500.78;;;11.83;39.02
57894;BME280;43710;47.460;19.034;2023-04-03T14:21:30;100498.22;;;12.20;52.54
57894;BME280;43710;47.460;19.034;2023-04-03T14:24:32;100493.16;;;12.19;42.46
57894;BME280;43710;47.460;19.034;2023-04-03T14:27:40;100497.53;;;12.53;43.01
57894;BME280;43710;47.460;19.034;2023-04-03T14:30:44;100495.22;;;12.46;45.80
57894;BME280;43710;47.460;19.034;2023-04-03T14:33:47;100498.28;;;12.58;46.81
57894;BME280;43710;47.460;19.034;2023-04-03T14:36:50;100497.38;;;12.44;39.63
57894;BME280;43710;47.460;19.034;2023-04-03T14:39:59;100489.00;;;12.27;48.03
57894;BME280;43710;47.460;19.034;2023-04-03T14:43:02;100494.91;;;12.48;46.22
57894;BME280;43710;47.460;19.034;2023-04-03T14:46:05;100499.31;;;12.19;44.37
57894;BME280;43710;47.460;19.034;2023-04-03T14:49:19;100501.09;;;12.48;44.62
57894;BME280;43710;47.460;19.034;2023-04-03T14:52:26;100500.38;;;12.18;40.02
57894;BME280;43710;47.460;19.034;2023-04-03T14:55:30;100507.19;;;12.35;47.69
57894;BME280;43710;47.460;19.034;2023-04-03T14:58:32;100511.47;;;12.12;40.90
57894;BME280;43710;47.460;19.034;2023-04-03T15:01:34;100509.78;;;11.97;38.57
57894;BME280;43710;47.460;19.034;2023-04-03T15:04:36;100505.06;;;11.89;46.63
57894;BME280;43710;47.460;19.034;2023-04-03T15:07:47;100511.56;;;12.07;42.80
57894;BME280;43710;47.460;19.034;2023-04-03T15:10:51;100498.13;;;12.07;40.23
57894;BME280;43710;47.460;19.034;2023-04-03T15:13:57;100503.03;;;11.75;38.46
57894;BME280;43710;47.460;19.034;2023-04-03T15:30:07;100501.16;;;11.47;43.24
57894;BME280;43710;47.460;19.034;2023-04-03T15:33:10;100516.19;;;11.14;40.77
57894;BME280;43710;47.460;19.034;2023-04-03T15:36:12;100500.97;;;11.04;40.64
57894;BME280;43710;47.460;19.034;2023-04-03T15:39:34;100503.72;;;10.94;43.03
57894;BME280;43710;47.460;19.034;2023-04-03T15:42:37;100508.63;;;10.81;42.25
57894;BME280;43710;47.460;19.034;2023-04-03T15:45:40;100506.06;;;10.66;40.72
57894;BME280;43710;47.460;19.034;2023-04-03T15:48:42;100506.06;;;10.66;40.04
57894;BME280;43710;47.460;19.034;2023-04-03T15:51:46;100506.00;;;10.71;42.88
